Weather reports worldwide

Advertisment
Katesbridge, United Kingdom (99014): temperature & dewpoint: 04.12.2018 10:00:00 - 10.12.2018 10:00:00 (GMT)Katesbridge, United Kingdom (99014): wind speed & gusts: 04.12.2018 10:00:00 - 10.12.2018 10:00:00 (GMT)Katesbridge, United Kingdom (99014): wind direction: 04.12.2018 10:00:00 - 10.12.2018 10:00:00 (GMT)Katesbridge, United Kingdom (99014): sunshine duration: 04.12.2018 10:00:00 - 10.12.2018 10:00:00 (GMT)Katesbridge, United Kingdom (99014): precipitation: 04.12.2018 10:00:00 - 10.12.2018 10:00:00 (GMT)
Date & Time tt [°C] td [°C] ff [km/h] ff [kn] fx [km/h] fx [kn] dd sd [min] rr [mm]
10.12.2018 10:00:00 - - - - - - - - -
10.12.2018 09:00:00 2,4 2,1 4 2 - - E 0 0,0
10.12.2018 08:00:00 1,8 1,5 4 2 - - SE 0 0,0
10.12.2018 07:00:00 1,2 0,8 2 1 - - ESE 0 0,0
10.12.2018 06:00:00 1,0 0,5 4 2 - - WNW 0 0,0
10.12.2018 05:00:00 2,2 1,7 4 2 - - NW 0 0,0
10.12.2018 04:00:00 3,1 2,3 4 2 - - W 0 0,0
10.12.2018 03:00:00 4,0 3,2 5 3 - - NW 0 0,0
10.12.2018 02:00:00 4,6 3,6 4 2 - - NW 0 0,0
10.12.2018 01:00:00 5,6 4,5 8 4 - - WNW 0 0,0
10.12.2018 00:00:00 4,6 3,8 8 4 - - WNW - 0,0
09.12.2018 23:00:00 4,8 4,0 8 4 - - W 0 0,2
09.12.2018 22:00:00 4,3 3,5 8 4 - - WNW 0 0,0
09.12.2018 21:00:00 4,1 3,3 5 3 - - W 0 0,0
09.12.2018 20:00:00 5,5 4,8 8 4 - - W 0 0,0
09.12.2018 19:00:00 5,6 4,4 5 3 - - WNW 0 0,6
09.12.2018 18:00:00 6,6 5,4 11 6 - - WNW 0 0,0
09.12.2018 17:00:00 6,8 5,5 8 4 - - WNW 0 0,0
09.12.2018 16:00:00 6,0 4,3 9 5 - - WNW 12 1,0
09.12.2018 15:00:00 8,5 5,7 11 6 - - WNW 18 0,0
09.12.2018 14:00:00 8,6 5,9 9 5 - - WNW 24 0,0
09.12.2018 13:00:00 8,1 6,1 8 4 - - NW 0 0,0
09.12.2018 12:00:00 7,6 5,5 9 5 - - WNW 6 0,0
09.12.2018 11:00:00 7,2 5,4 11 6 - - WNW 0 0,0
09.12.2018 10:00:00 6,5 5,3 9 5 - - WNW 0 0,0
09.12.2018 09:00:00 5,9 4,8 9 5 - - WNW 0 0,0
09.12.2018 08:00:00 5,4 4,8 4 2 - - NNW 0 0,0
09.12.2018 07:00:00 5,1 4,5 8 4 - - WNW 0 0,0
09.12.2018 06:00:00 5,6 4,8 5 3 - - NW 0 0,0
09.12.2018 05:00:00 6,6 5,5 9 5 - - NW 0 0,2
09.12.2018 04:00:00 6,2 4,9 9 5 - - WNW 0 0,0
09.12.2018 03:00:00 7,1 5,6 11 6 - - NW 0 0,0
09.12.2018 02:00:00 7,1 5,5 9 5 - - WNW 0 0,0
09.12.2018 01:00:00 7,1 5,4 13 7 - - W 0 0,0
09.12.2018 00:00:00 6,9 5,3 9 5 - - W - 0,0
08.12.2018 23:00:00 7,1 4,8 18 10 - - W 0 0,0
08.12.2018 22:00:00 7,1 4,7 22 12 - - W 0 0,0
08.12.2018 21:00:00 7,2 5,5 16 9 - - W 0 0,6
08.12.2018 20:00:00 7,0 5,1 16 9 - - WNW 0 1,4
08.12.2018 19:00:00 7,5 5,4 18 10 - - W 0 0,2
08.12.2018 18:00:00 7,0 4,8 16 9 - - W 0 0,0
08.12.2018 17:00:00 7,7 5,2 21 11 - - W 0 0,0
08.12.2018 16:00:00 8,0 5,1 22 12 46 25 W 0 0,0
08.12.2018 15:00:00 8,4 4,6 24 13 - - W 18 0,0
08.12.2018 14:00:00 9,5 6,2 21 11 50 27 W 12 0,2
08.12.2018 13:00:00 9,2 7,3 18 10 - - WSW 18 0,0
08.12.2018 12:00:00 7,6 6,4 18 10 - - WSW 6 0,4
08.12.2018 11:00:00 6,9 5,5 15 8 - - SW 0 0,2
08.12.2018 10:00:00 6,9 4,6 8 4 - - W 24 0,0
08.12.2018 09:00:00 6,8 4,1 16 9 - - W 0 0,0
08.12.2018 08:00:00 7,3 4,9 16 9 - - W 0 0,0
08.12.2018 07:00:00 7,5 5,6 24 13 - - W 0 0,0
08.12.2018 06:00:00 7,5 5,5 21 11 - - W 0 0,0
08.12.2018 05:00:00 7,4 4,9 21 11 - - W 0 0,0
08.12.2018 04:00:00 7,5 5,2 18 10 54 29 WNW 0 0,0
08.12.2018 03:00:00 7,4 5,2 21 11 48 26 W 0 0,0
08.12.2018 02:00:00 7,6 6,0 21 11 57 31 WNW 0 1,0
08.12.2018 01:00:00 8,0 6,6 21 11 50 27 W 0 1,2
08.12.2018 00:00:00 7,9 6,1 35 19 65 35 W - 0,4
07.12.2018 23:00:00 7,7 5,4 29 16 55 30 W 0 0,2
07.12.2018 22:00:00 7,6 4,7 28 15 61 33 W 0 0,0
07.12.2018 21:00:00 7,3 4,5 29 16 55 30 W 0 0,0
07.12.2018 20:00:00 6,9 4,6 26 14 52 28 W 0 0,2
07.12.2018 19:00:00 6,8 3,9 28 15 48 26 W 0 0,0
07.12.2018 18:00:00 6,3 2,9 24 13 52 28 W 0 0,0
07.12.2018 17:00:00 5,7 2,3 26 14 52 28 W 0 0,0
07.12.2018 16:00:00 5,7 2,1 29 16 52 28 WSW 12 0,0
07.12.2018 15:00:00 6,0 2,0 29 16 50 27 W 42 0,0
07.12.2018 14:00:00 6,0 2,1 29 16 57 31 W 60 0,0
07.12.2018 13:00:00 6,2 1,8 26 14 55 30 W 48 0,0
07.12.2018 12:00:00 6,0 2,5 24 13 54 29 W 30 0,2
07.12.2018 11:00:00 6,1 2,4 24 13 - - WSW 54 0,0
07.12.2018 10:00:00 5,4 1,5 21 11 - - WSW 36 0,0
07.12.2018 09:00:00 5,1 1,7 18 10 - - WSW 0 0,0
07.12.2018 08:00:00 5,3 1,9 18 10 - - WSW 0 0,0
07.12.2018 07:00:00 6,2 2,8 21 11 - - WSW 0 0,0
07.12.2018 06:00:00 6,9 2,8 18 10 - - WSW 0 0,0
07.12.2018 05:00:00 8,0 3,7 24 13 - - W 0 0,0
07.12.2018 04:00:00 9,3 5,5 22 12 48 26 WSW 0 0,0
07.12.2018 03:00:00 11,6 6,5 31 17 54 29 W 0 0,0
07.12.2018 02:00:00 12,3 10,8 24 13 50 27 WSW 0 0,0
07.12.2018 01:00:00 11,8 10,6 24 13 - - SSW 0 0,0
07.12.2018 00:00:00 11,2 9,7 22 12 - - S - 0,2
06.12.2018 23:00:00 9,5 8,3 16 9 - - S 0 0,8
06.12.2018 22:00:00 9,1 7,4 11 6 - - S 0 0,2
06.12.2018 21:00:00 8,3 6,3 9 5 - - SSE 0 0,0
06.12.2018 20:00:00 7,6 7,1 5 3 - - SSE 0 0,0
06.12.2018 19:00:00 6,6 5,7 4 2 - - E 0 0,0
06.12.2018 18:00:00 6,8 6,1 5 3 - - WSW 0 0,0
06.12.2018 17:00:00 8,8 7,3 5 3 - - SW 0 0,0
06.12.2018 16:00:00 10,4 8,6 8 4 - - WSW 0 0,0
06.12.2018 15:00:00 10,9 8,8 9 5 - - W 0 0,0
06.12.2018 14:00:00 11,3 9,0 8 4 - - WNW 0 0,0
06.12.2018 13:00:00 12,1 10,9 13 7 - - W 0 0,2
06.12.2018 12:00:00 11,8 11,3 11 6 - - WSW 0 0,0
06.12.2018 11:00:00 11,6 11,0 16 9 - - WSW 0 0,2
06.12.2018 10:00:00 11,1 10,5 18 10 - - SW 0 0,2
06.12.2018 09:00:00 11,0 10,2 16 9 - - SW 0 0,0
06.12.2018 08:00:00 10,7 9,9 15 8 - - SW 0 0,0
06.12.2018 07:00:00 10,9 9,6 21 11 - - SW 0 0,8
06.12.2018 06:00:00 10,7 9,4 16 9 - - SW 0 0,2
06.12.2018 05:00:00 10,9 9,7 21 11 - - SSW 0 0,0
06.12.2018 04:00:00 10,9 9,5 15 8 - - SSW 0 0,2
06.12.2018 03:00:00 9,9 9,2 13 7 - - S 0 0,0
06.12.2018 02:00:00 8,7 8,3 5 3 - - SSE 0 0,0
06.12.2018 01:00:00 7,8 7,6 4 2 - - SE 0 0,0
06.12.2018 00:00:00 7,3 7,0 2 1 - - E - 0,0
05.12.2018 23:00:00 7,3 7,0 2 1 - - SW 0 0,0
05.12.2018 22:00:00 7,2 6,9 4 2 - - SSE 0 0,0
05.12.2018 21:00:00 7,0 6,6 2 1 - - E 0 0,0
05.12.2018 20:00:00 7,1 6,7 2 1 - - W 0 0,0
05.12.2018 19:00:00 7,3 6,9 2 1 - - NW 0 0,0
05.12.2018 18:00:00 7,5 7,0 5 3 - - N 0 0,0
05.12.2018 17:00:00 8,0 7,4 4 2 - - E 0 0,0
05.12.2018 16:00:00 7,9 7,3 13 7 - - ENE 0 0,0
05.12.2018 15:00:00 8,4 7,7 9 5 - - NNE 0 0,0
05.12.2018 14:00:00 8,6 7,8 9 5 - - NNE 0 0,0
05.12.2018 13:00:00 9,3 8,4 9 5 - - E 0 0,0
05.12.2018 12:00:00 8,5 7,9 16 9 - - E 0 0,0
05.12.2018 11:00:00 8,0 7,5 18 10 - - ESE 0 0,0
05.12.2018 10:00:00 7,5 7,0 24 13 - - ESE 0 0,2
05.12.2018 09:00:00 7,1 6,6 22 12 - - ESE 0 1,4
05.12.2018 08:00:00 6,8 6,2 24 13 - - ESE 0 1,0
05.12.2018 07:00:00 6,6 6,1 26 14 - - ESE 0 1,4
05.12.2018 06:00:00 6,0 5,4 26 14 - - ESE 0 1,2
05.12.2018 05:00:00 6,0 4,5 22 12 - - ESE 0 0,2
05.12.2018 04:00:00 5,7 3,8 21 11 - - SE 0 0,2
05.12.2018 03:00:00 5,9 3,3 18 10 - - SSE 0 0,0
05.12.2018 02:00:00 5,3 3,8 11 6 - - SE 0 0,0
05.12.2018 01:00:00 4,4 3,7 9 5 - - ESE 0 0,0
05.12.2018 00:00:00 3,5 2,9 4 2 - - E - 0,2
04.12.2018 23:00:00 2,5 2,1 4 2 - - SE 0 0,0
04.12.2018 22:00:00 1,0 0,8 5 3 - - SE 0 0,0
04.12.2018 21:00:00 0,4 0,1 0 0 - - N 0 0,0
04.12.2018 20:00:00 0,1 -0,3 0 0 - - N 0 0,0
04.12.2018 19:00:00 0,2 -0,3 0 0 - - N 0 0,0
04.12.2018 18:00:00 1,1 0,7 2 1 - - ENE 0 0,0
04.12.2018 17:00:00 0,3 -0,2 4 2 - - ESE 0 0,0
04.12.2018 16:00:00 1,5 0,9 4 2 - - NE 0 0,0
04.12.2018 15:00:00 2,1 1,4 2 1 - - SW 0 0,0
04.12.2018 14:00:00 2,8 2,3 4 2 - - ESE 0 0,0
04.12.2018 13:00:00 1,7 1,4 5 3 - - E 0 0,0
04.12.2018 12:00:00 1,0 0,6 2 1 - - NNE 0 0,0
04.12.2018 11:00:00 0,9 0,6 5 3 - - SE 0 0,0
04.12.2018 10:00:00 -0,9 -1,1 2 1 - - S 18 0,0

tt = temperature
td = dewpoint
ff = wind speed
fx = gusts
dd = wind direction
sd = sunshine duration
rr = precipitation

Next stations